createdAt,value
2022-12-20T00:01:58.721Z,98833.84
2022-12-20T00:04:27.187Z,98837.91
2022-12-20T00:06:55.779Z,98830.75
2022-12-20T00:09:25.523Z,98830.97
2022-12-20T00:11:53.862Z,98831.38
2022-12-20T00:14:24.866Z,98830.66
2022-12-20T00:16:53.258Z,98832.50
2022-12-20T00:19:23.594Z,98828.69
2022-12-20T00:21:52.242Z,98835.06
2022-12-20T00:24:26.308Z,98826.81
2022-12-20T00:26:55.229Z,98824.66
2022-12-20T00:29:25.503Z,98827.66
2022-12-20T00:31:54.461Z,98820.38
2022-12-20T00:34:23.521Z,98818.91
2022-12-20T00:36:53.580Z,98817.19
2022-12-20T00:39:24.314Z,98807.81
2022-12-20T00:41:55.648Z,98807.94
2022-12-20T00:44:26.163Z,98811.78
2022-12-20T00:46:55.325Z,98807.34
2022-12-20T00:49:25.820Z,98804.34
2022-12-20T00:51:57.500Z,98807.28
2022-12-20T00:54:25.957Z,98795.41
2022-12-20T00:56:56.735Z,98801.53
2022-12-20T00:59:28.065Z,98798.31
2022-12-20T01:01:57.668Z,98801.06
2022-12-20T01:04:27.620Z,98804.97
2022-12-20T01:06:56.449Z,98804.25
2022-12-20T01:09:25.701Z,98803.38
2022-12-20T01:11:54.182Z,98789.97
2022-12-20T01:14:26.593Z,98791.41
2022-12-20T01:16:56.943Z,98794.41
2022-12-20T01:19:26.691Z,98795.59
2022-12-20T01:21:57.954Z,98798.53
2022-12-20T01:24:26.893Z,98793.84
2022-12-20T01:26:57.314Z,98791.47
2022-12-20T01:29:27.049Z,98789.00
2022-12-20T01:31:55.951Z,98786.47
2022-12-20T01:34:29.596Z,98779.03
2022-12-20T01:37:35.868Z,98779.72
2022-12-20T01:46:37.080Z,98773.97
2022-12-20T01:49:12.083Z,98776.41
2022-12-20T01:51:45.547Z,98767.38
2022-12-20T01:54:18.539Z,98752.31
2022-12-20T01:56:49.429Z,98742.59
2022-12-20T01:59:19.419Z,98746.00
2022-12-20T02:01:49.361Z,98747.81
2022-12-20T02:04:19.248Z,98745.13
2022-12-20T02:06:47.724Z,98733.22
2022-12-20T02:09:17.229Z,98739.28
2022-12-20T02:11:57.793Z,98734.00
2022-12-20T02:14:49.366Z,98738.75
2022-12-20T02:17:23.378Z,98741.97
2022-12-20T02:20:12.496Z,98732.63
2022-12-20T02:22:52.762Z,98727.56
2022-12-20T02:25:35.668Z,98727.16
2022-12-20T02:28:11.326Z,98731.34
2022-12-20T02:30:43.381Z,98726.88
2022-12-20T02:33:13.622Z,98717.31
2022-12-20T02:35:43.501Z,98726.50
2022-12-20T02:38:29.821Z,98722.78
2022-12-20T02:41:02.192Z,98707.09
2022-12-20T02:43:51.151Z,98694.84
2022-12-20T02:46:22.553Z,98698.13
2022-12-20T02:48:53.580Z,98704.66
2022-12-20T02:51:23.604Z,98696.38
2022-12-20T02:53:52.368Z,98693.97
2022-12-20T02:56:27.927Z,98690.44
2022-12-20T02:59:00.136Z,98691.03
2022-12-20T03:01:33.083Z,98691.13
2022-12-20T03:04:02.406Z,98696.56
2022-12-20T03:06:32.076Z,98691.63
2022-12-20T03:09:00.859Z,98692.59
2022-12-20T03:11:31.744Z,98689.09
2022-12-20T03:14:00.498Z,98688.00
2022-12-20T03:16:30.427Z,98690.84
2022-12-20T03:18:58.970Z,98690.34
2022-12-20T03:21:27.331Z,98684.81
2022-12-20T03:23:55.749Z,98679.72
2022-12-20T03:26:24.271Z,98669.22
2022-12-20T03:28:57.487Z,98666.38
2022-12-20T03:31:28.744Z,98659.78
2022-12-20T03:33:59.669Z,98670.78
2022-12-20T03:36:28.428Z,98669.50
2022-12-20T03:39:00.416Z,98669.75
2022-12-20T03:41:32.192Z,98666.34
2022-12-20T03:44:01.486Z,98664.63
2022-12-20T03:46:29.934Z,98659.19
2022-12-20T03:49:00.326Z,98664.63
2022-12-20T03:51:30.707Z,98665.00
2022-12-20T03:53:59.300Z,98661.91
2022-12-20T03:56:43.157Z,98668.03
2022-12-20T03:59:11.930Z,98656.53
2022-12-20T04:01:42.090Z,98647.97
2022-12-20T04:04:13.718Z,98645.72
2022-12-20T04:06:42.223Z,98653.34
2022-12-20T04:09:10.779Z,98659.88
2022-12-20T04:11:45.144Z,98656.66
2022-12-20T04:14:16.471Z,98653.34
2022-12-20T04:16:46.276Z,98660.28
2022-12-20T04:19:16.606Z,98660.72
2022-12-20T04:21:47.987Z,98662.66
2022-12-20T04:24:18.277Z,98667.22
2022-12-20T04:27:15.883Z,98668.13
2022-12-20T04:29:45.794Z,98660.34
2022-12-20T04:32:17.316Z,98651.16
2022-12-20T04:34:47.298Z,98653.63
2022-12-20T04:37:17.011Z,98645.34
2022-12-20T04:39:49.904Z,98646.91
2022-12-20T04:42:24.910Z,98651.00
2022-12-20T04:44:54.930Z,98648.84
2022-12-20T04:47:29.681Z,98647.91
2022-12-20T04:50:01.106Z,98644.28
2022-12-20T04:52:48.441Z,98639.13
2022-12-20T04:55:18.204Z,98639.53
2022-12-20T04:57:46.707Z,98631.72
2022-12-20T05:00:15.929Z,98643.59
2022-12-20T05:02:47.770Z,98634.06
2022-12-20T05:05:20.900Z,98642.84
2022-12-20T05:07:53.283Z,98636.78
2022-12-20T05:10:21.938Z,98642.41
2022-12-20T05:12:51.674Z,98634.94
2022-12-20T05:15:31.272Z,98627.63
2022-12-20T05:18:00.989Z,98635.81
2022-12-20T05:20:39.770Z,98630.34
2022-12-20T05:23:25.842Z,98625.78
2022-12-20T05:26:19.345Z,98629.25
2022-12-20T05:28:50.002Z,98616.53
2022-12-20T05:31:18.627Z,98617.50
2022-12-20T05:33:47.168Z,98615.84
2022-12-20T05:36:18.558Z,98613.69
2022-12-20T05:38:47.095Z,98616.81
2022-12-20T05:41:18.659Z,98611.06
2022-12-20T05:43:50.264Z,98604.53
2022-12-20T05:46:19.535Z,98613.59
2022-12-20T05:49:01.719Z,98615.03
2022-12-20T05:51:31.662Z,98618.66
2022-12-20T05:54:18.921Z,98615.66
2022-12-20T05:56:55.840Z,98617.03
2022-12-20T05:59:32.670Z,98613.81
2022-12-20T06:02:01.380Z,98612.63
2022-12-20T06:04:29.796Z,98607.44
2022-12-20T06:07:01.039Z,98592.84
2022-12-20T06:09:31.366Z,98604.06
2022-12-20T06:12:06.403Z,98606.97
2022-12-20T06:14:36.066Z,98597.72
2022-12-20T06:17:04.588Z,98603.06
2022-12-20T06:19:33.634Z,98592.63
2022-12-20T06:22:06.075Z,98592.84
2022-12-20T06:24:47.917Z,98595.38
2022-12-20T06:27:18.798Z,98598.41
2022-12-20T06:29:54.668Z,98606.69
2022-12-20T06:32:27.548Z,98606.69
2022-12-20T06:34:56.721Z,98610.84
2022-12-20T06:37:27.470Z,98605.13
2022-12-20T06:39:56.042Z,98605.22
2022-12-20T06:42:24.715Z,98614.19
2022-12-20T06:44:53.056Z,98605.31
2022-12-20T06:47:21.773Z,98610.38
2022-12-20T06:49:52.112Z,98604.84
2022-12-20T06:52:24.061Z,98600.94
2022-12-20T06:54:57.986Z,98605.41
2022-12-20T06:57:26.592Z,98615.34
2022-12-20T06:59:56.699Z,98612.72
2022-12-20T07:02:27.617Z,98618.09
2022-12-20T07:04:56.546Z,98614.97
2022-12-20T07:07:25.321Z,98605.31
2022-12-20T07:09:53.692Z,98594.97
2022-12-20T07:12:24.196Z,98605.31
2022-12-20T07:14:53.259Z,98605.78
2022-12-20T07:17:21.594Z,98606.78
2022-12-20T07:19:51.199Z,98607.06
2022-12-20T07:22:19.891Z,98612.03
2022-12-20T07:24:50.227Z,98601.31
2022-12-20T07:27:18.734Z,98598.78
2022-12-20T07:29:48.476Z,98602.31
2022-12-20T07:32:17.052Z,98600.91
2022-12-20T07:34:45.394Z,98618.66
2022-12-20T07:37:14.130Z,98618.75
2022-12-20T07:39:42.980Z,98630.75
2022-12-20T07:42:12.723Z,98632.91
2022-12-20T07:44:44.452Z,98628.91
2022-12-20T07:47:14.409Z,98621.19
2022-12-20T07:49:42.895Z,98608.25
2022-12-20T07:52:12.897Z,98599.19
2022-12-20T07:54:46.040Z,98602.69
2022-12-20T07:57:19.072Z,98601.81
2022-12-20T07:59:53.196Z,98600.22
2022-12-20T08:02:25.722Z,98602.50
2022-12-20T08:04:54.919Z,98598.59
2022-12-20T08:07:25.014Z,98594.41
2022-12-20T08:09:53.723Z,98603.84
2022-12-20T08:12:23.193Z,98608.31
2022-12-20T08:14:56.188Z,98613.69
2022-12-20T08:17:26.311Z,98608.13
2022-12-20T08:19:57.441Z,98605.41
2022-12-20T08:22:26.823Z,98592.63
2022-12-20T08:24:55.596Z,98588.66
2022-12-20T08:27:24.340Z,98591.25
2022-12-20T08:29:53.390Z,98591.38
2022-12-20T08:32:21.715Z,98589.59
2022-12-20T08:34:51.511Z,98590.28
2022-12-20T08:37:20.284Z,98581.25
2022-12-20T08:39:48.627Z,98584.06
2022-12-20T08:42:19.479Z,98580.25
2022-12-20T08:44:51.032Z,98585.00
2022-12-20T08:47:19.499Z,98586.47
2022-12-20T08:49:48.307Z,98590.69
2022-12-20T08:52:18.469Z,98587.34
2022-12-20T08:54:47.329Z,98585.97
2022-12-20T08:57:16.168Z,98581.41
2022-12-20T08:59:44.629Z,98579.56
2022-12-20T09:02:13.316Z,98581.59
2022-12-20T09:04:42.312Z,98575.56
2022-12-20T09:07:10.702Z,98577.22
2022-12-20T09:09:40.778Z,98571.66
2022-12-20T09:12:09.341Z,98582.22
2022-12-20T09:14:38.363Z,98586.47
2022-12-20T09:17:07.204Z,98581.72
2022-12-20T09:19:35.919Z,98580.25
2022-12-20T09:22:04.480Z,98580.03
2022-12-20T09:24:32.962Z,98577.41
2022-12-20T09:27:02.930Z,98571.06
2022-12-20T09:29:35.843Z,98564.16
2022-12-20T09:32:04.520Z,98566.22
2022-12-20T09:34:32.967Z,98561.69
2022-12-20T09:37:01.719Z,98556.50
2022-12-20T09:39:30.767Z,98562.66
2022-12-20T09:42:02.835Z,98556.25
2022-12-20T09:44:34.786Z,98553.16
2022-12-20T09:47:10.527Z,98552.31
2022-12-20T09:49:42.520Z,98551.75
2022-12-20T09:52:32.889Z,98546.38
2022-12-20T09:55:08.859Z,98548.28
2022-12-20T09:57:48.960Z,98537.09
2022-12-20T10:00:19.392Z,98536.59
2022-12-20T10:03:06.107Z,98534.94
2022-12-20T10:05:42.156Z,98532.03
2022-12-20T10:08:17.878Z,98533.72
2022-12-20T10:10:55.851Z,98531.47
2022-12-20T10:13:37.161Z,98526.88
2022-12-20T10:16:11.694Z,98519.94
2022-12-20T10:18:49.736Z,98521.78
2022-12-20T10:21:23.850Z,98518.09
2022-12-20T10:23:59.722Z,98514.19
2022-12-20T10:26:29.849Z,98511.09
2022-12-20T10:29:08.728Z,98513.91
2022-12-20T10:31:47.041Z,98510.22
2022-12-20T10:34:17.267Z,98501.31
2022-12-20T10:37:16.101Z,98481.78
2022-12-20T10:39:46.034Z,98480.94
2022-12-20T10:42:27.061Z,98477.69
2022-12-20T10:44:57.642Z,98470.16
2022-12-20T10:47:35.683Z,98459.78
2022-12-20T10:50:15.912Z,98452.63
2022-12-20T10:52:45.999Z,98440.63
2022-12-20T10:55:34.551Z,98441.38
2022-12-20T10:58:06.160Z,98436.69
2022-12-20T11:00:36.293Z,98444.47
2022-12-20T11:03:11.998Z,98434.50
2022-12-20T11:05:41.162Z,98437.13
2022-12-20T11:11:19.594Z,98431.78
2022-12-20T11:13:48.370Z,98418.25
2022-12-20T11:16:32.384Z,98416.56
2022-12-20T11:19:16.889Z,98412.72
2022-12-20T11:21:49.008Z,98409.72
2022-12-20T11:24:26.627Z,98407.75
2022-12-20T11:27:11.928Z,98396.09
2022-12-20T11:30:11.411Z,98395.91
2022-12-20T11:33:04.611Z,98389.09
2022-12-20T11:35:42.306Z,98388.31
2022-12-20T11:38:16.049Z,98388.56
2022-12-20T11:40:49.785Z,98389.19
2022-12-20T11:43:28.944Z,98381.13
2022-12-20T11:46:09.974Z,98381.56
2022-12-20T11:48:59.566Z,98369.09
2022-12-20T11:51:32.983Z,98371.28
2022-12-20T11:54:04.973Z,98370.84
2022-12-20T11:56:43.520Z,98369.88
2022-12-20T11:59:19.275Z,98375.38
2022-12-20T12:01:51.389Z,98371.88
2022-12-20T12:04:24.070Z,98378.34
2022-12-20T12:06:58.576Z,98363.41
2022-12-20T12:09:32.317Z,98356.56
2022-12-20T12:12:07.867Z,98363.22
2022-12-20T12:14:46.211Z,98356.31
2022-12-20T12:17:21.921Z,98348.16
2022-12-20T12:19:52.452Z,98349.66
2022-12-20T12:22:26.040Z,98354.47
2022-12-20T12:24:57.880Z,98359.72
2022-12-20T12:27:28.494Z,98366.78
2022-12-20T12:29:57.907Z,98357.72
2022-12-20T12:32:31.551Z,98352.81
2022-12-20T12:35:13.498Z,98349.31
2022-12-20T12:37:55.039Z,98355.72
2022-12-20T12:40:56.448Z,98350.72
2022-12-20T12:43:47.345Z,98357.38
2022-12-20T12:46:19.298Z,98352.56
2022-12-20T12:48:53.065Z,98355.28
2022-12-20T12:51:37.715Z,98343.28
2022-12-20T12:54:19.173Z,98344.97
2022-12-20T12:56:49.121Z,98352.63
2022-12-20T12:59:41.399Z,98354.41
2022-12-20T13:02:38.605Z,98347.31
2022-12-20T13:05:36.771Z,98348.88
2022-12-20T13:08:17.454Z,98349.91
2022-12-20T13:11:13.253Z,98348.34
2022-12-20T13:13:41.763Z,98355.09
2022-12-20T13:16:15.303Z,98354.66
2022-12-20T13:19:13.474Z,98340.84
2022-12-20T13:21:44.952Z,98344.84
2022-12-20T13:24:55.334Z,98344.16
2022-12-20T13:27:29.494Z,98348.69
2022-12-20T13:30:22.319Z,98345.19
2022-12-20T13:33:25.983Z,98339.00
2022-12-20T13:36:03.385Z,98344.84
2022-12-20T13:38:56.683Z,98345.22
2022-12-20T13:41:41.769Z,98336.38
2022-12-20T13:44:38.170Z,98341.25
2022-12-20T13:47:18.672Z,98335.97
2022-12-20T13:49:47.580Z,98337.25
2022-12-20T13:52:39.697Z,98338.63
2022-12-20T13:55:18.739Z,98340.25
2022-12-20T13:57:49.067Z,98344.50
2022-12-20T14:00:19.927Z,98340.34
2022-12-20T14:02:49.273Z,98332.38
2022-12-20T14:05:21.819Z,98327.97
2022-12-20T14:07:57.534Z,98326.50
2022-12-20T14:10:28.933Z,98322.75
2022-12-20T14:12:59.060Z,98319.06
2022-12-20T14:15:31.350Z,98310.94
2022-12-20T14:18:06.860Z,98306.16
2022-12-20T14:20:37.347Z,98303.25
2022-12-20T14:23:07.157Z,98301.84
2022-12-20T14:25:45.349Z,98291.03
2022-12-20T14:28:27.404Z,98297.81
2022-12-20T14:30:57.229Z,98302.91
2022-12-20T14:33:33.229Z,98308.25
2022-12-20T14:36:10.313Z,98306.28
2022-12-20T14:38:40.425Z,98308.47
2022-12-20T14:41:34.212Z,98302.09
2022-12-20T14:44:13.806Z,98302.72
2022-12-20T14:46:47.061Z,98292.47
2022-12-20T14:49:24.466Z,98304.03
2022-12-20T14:51:53.672Z,98297.91
2022-12-20T14:55:05.861Z,98291.09
2022-12-20T14:57:14.097Z,98290.16
2022-12-20T14:59:59.686Z,98290.22
2022-12-20T15:02:41.591Z,98276.59
2022-12-20T15:05:48.532Z,98272.41
2022-12-20T15:08:19.847Z,98266.97
2022-12-20T15:10:54.803Z,98273.97
2022-12-20T15:13:26.094Z,98273.97
2022-12-20T15:15:57.056Z,98284.09
2022-12-20T15:18:25.805Z,98278.25
2022-12-20T15:21:05.129Z,98278.59
2022-12-20T15:23:34.546Z,98280.50
2022-12-20T15:26:03.224Z,98284.09
2022-12-20T15:28:32.463Z,98281.31
2022-12-20T15:31:02.398Z,98283.22
2022-12-20T15:33:34.590Z,98288.22
2022-12-20T15:36:03.221Z,98291.78
2022-12-20T15:39:03.475Z,98279.19
2022-12-20T15:41:23.511Z,98279.91
2022-12-20T15:43:53.969Z,98272.03
2022-12-20T15:46:24.018Z,98280.41
2022-12-20T15:48:53.566Z,98273.59
2022-12-20T15:51:27.463Z,98280.28
2022-12-20T15:53:55.891Z,98278.44
2022-12-20T15:56:25.488Z,98273.59
2022-12-20T15:58:54.101Z,98276.78
2022-12-20T16:01:25.631Z,98268.88
2022-12-20T16:03:54.318Z,98267.22
2022-12-20T16:06:23.306Z,98273.44
2022-12-20T16:08:51.782Z,98259.22
2022-12-20T16:11:23.897Z,98255.53
2022-12-20T16:13:52.515Z,98254.59
2022-12-20T16:16:24.197Z,98260.25
2022-12-20T16:18:53.802Z,98277.03
2022-12-20T16:21:23.904Z,98277.34
2022-12-20T16:23:52.473Z,98286.03
2022-12-20T16:26:23.000Z,98278.50
2022-12-20T16:28:54.834Z,98279.81
2022-12-20T16:31:27.017Z,98277.03
2022-12-20T16:33:56.370Z,98271.81
2022-12-20T16:36:25.521Z,98275.44
2022-12-20T16:38:54.268Z,98278.78
2022-12-20T16:41:25.216Z,98276.50
2022-12-20T16:43:53.726Z,98283.03
2022-12-20T16:46:26.390Z,98274.16
2022-12-20T16:48:55.336Z,98271.44
2022-12-20T16:51:26.015Z,98267.09
2022-12-20T16:54:18.021Z,98267.66
2022-12-20T16:56:44.076Z,98265.94
2022-12-20T16:59:22.101Z,98254.78
2022-12-20T17:01:54.529Z,98250.03
2022-12-20T17:04:26.047Z,98240.44
2022-12-20T17:06:56.781Z,98243.84
2022-12-20T17:09:25.311Z,98236.75
2022-12-20T17:11:53.749Z,98237.81
2022-12-20T17:14:22.251Z,98244.63
2022-12-20T17:16:50.762Z,98242.09
2022-12-20T17:19:20.743Z,98248.03
2022-12-20T17:24:36.579Z,98246.72
2022-12-20T17:27:06.428Z,98255.56
2022-12-20T17:29:35.124Z,98248.81
2022-12-20T17:32:05.275Z,98259.75
2022-12-20T17:34:36.695Z,98256.78
2022-12-20T17:37:05.286Z,98254.31
2022-12-20T17:39:34.902Z,98256.00
2022-12-20T17:42:03.371Z,98262.38
2022-12-20T17:44:32.873Z,98258.13
2022-12-20T17:47:01.605Z,98252.13
2022-12-20T17:49:31.475Z,98257.53
2022-12-20T17:52:01.727Z,98261.56
2022-12-20T17:54:36.839Z,98267.53
2022-12-20T17:57:14.401Z,98264.19
2022-12-20T17:59:43.522Z,98281.34
2022-12-20T18:02:22.357Z,98271.09
2022-12-20T18:04:51.110Z,98254.22
2022-12-20T18:07:21.236Z,98251.00
2022-12-20T18:09:50.151Z,98256.06
2022-12-20T18:12:18.931Z,98257.47
2022-12-20T18:14:49.455Z,98257.69
2022-12-20T18:17:17.872Z,98244.00
2022-12-20T18:19:46.641Z,98248.09
2022-12-20T18:22:15.047Z,98241.56
2022-12-20T18:24:44.756Z,98240.59
2022-12-20T18:27:13.951Z,98228.72
2022-12-20T18:29:42.682Z,98229.59
2022-12-20T18:32:11.658Z,98228.59
2022-12-20T18:34:40.052Z,98233.59
2022-12-20T18:37:08.706Z,98235.78
2022-12-20T18:39:38.391Z,98226.00
2022-12-20T18:42:08.422Z,98233.41
2022-12-20T18:44:36.937Z,98223.44
2022-12-20T18:47:06.136Z,98217.69
2022-12-20T18:49:36.201Z,98218.66
2022-12-20T18:52:05.421Z,98221.78
2022-12-20T18:54:33.963Z,98218.34
2022-12-20T18:57:06.319Z,98217.16
2022-12-20T18:59:36.540Z,98218.53
2022-12-20T19:02:06.120Z,98209.31
2022-12-20T19:04:36.144Z,98207.88
2022-12-20T19:07:06.982Z,98210.09
2022-12-20T19:09:36.925Z,98202.84
2022-12-20T19:12:08.026Z,98198.09
2022-12-20T19:14:38.653Z,98195.19
2022-12-20T19:17:07.610Z,98184.19
2022-12-20T19:19:39.670Z,98178.47
2022-12-20T19:22:12.113Z,98174.00
2022-12-20T19:24:42.346Z,98175.13
2022-12-20T19:27:11.312Z,98178.03
2022-12-20T19:29:41.792Z,98166.06
2022-12-20T19:32:12.824Z,98149.53
2022-12-20T19:34:41.981Z,98147.34
2022-12-20T19:37:11.359Z,98157.94
2022-12-20T19:39:43.514Z,98156.69
2022-12-20T19:42:29.889Z,98155.72
2022-12-20T19:45:01.625Z,98150.00
2022-12-20T19:47:33.225Z,98150.66
2022-12-20T19:50:02.105Z,98148.94
2022-12-20T19:52:30.890Z,98140.28
2022-12-20T19:55:00.541Z,98147.19
2022-12-20T19:57:29.159Z,98142.19
2022-12-20T19:59:59.955Z,98137.25
2022-12-20T20:02:28.912Z,98123.72
2022-12-20T20:04:58.437Z,98122.38
2022-12-20T20:07:28.938Z,98124.63
2022-12-20T20:09:58.029Z,98110.22
2022-12-20T20:12:26.906Z,98117.66
2022-12-20T20:14:56.626Z,98120.59
2022-12-20T20:17:27.577Z,98118.09
2022-12-20T20:19:56.147Z,98130.88
2022-12-20T20:22:25.605Z,98128.59
2022-12-20T20:24:54.641Z,98113.31
2022-12-20T20:27:25.009Z,98117.31
2022-12-20T20:29:53.461Z,98121.72
2022-12-20T20:32:23.031Z,98115.50
2022-12-20T20:34:53.040Z,98114.09
2022-12-20T20:37:21.459Z,98112.75
2022-12-20T20:39:50.062Z,98113.47
2022-12-20T20:42:23.223Z,98102.97
2022-12-20T20:44:52.549Z,98115.69
2022-12-20T20:47:21.569Z,98114.69
2022-12-20T20:49:52.819Z,98120.19
2022-12-20T20:52:22.780Z,98113.72
2022-12-20T20:54:51.383Z,98111.56
2022-12-20T20:57:20.202Z,98109.44
2022-12-20T20:59:48.745Z,98102.19
2022-12-20T21:02:21.099Z,98113.19
2022-12-20T21:05:24.689Z,98111.69
2022-12-20T21:07:39.939Z,98105.91
2022-12-20T21:10:10.112Z,98095.03
2022-12-20T21:12:38.847Z,98094.22
2022-12-20T21:15:24.794Z,98096.16
2022-12-20T21:17:56.889Z,98099.81
2022-12-20T21:20:26.547Z,98096.16
2022-12-20T21:22:57.440Z,98099.19
2022-12-20T21:25:26.299Z,98093.63
2022-12-20T21:27:54.603Z,98091.09
2022-12-20T21:30:23.110Z,98079.63
2022-12-20T21:32:51.527Z,98067.31
2022-12-20T21:35:19.813Z,98078.31
2022-12-20T21:37:48.125Z,98076.66
2022-12-20T21:40:18.175Z,98077.63
2022-12-20T21:42:46.724Z,98076.59
2022-12-20T21:45:15.953Z,98075.19
2022-12-20T21:47:44.331Z,98073.63
2022-12-20T21:50:14.318Z,98071.47
2022-12-20T21:52:42.652Z,98069.97
2022-12-20T21:55:11.209Z,98067.78
2022-12-20T21:57:41.285Z,98059.31
2022-12-20T22:00:11.380Z,98060.19
2022-12-20T22:02:39.734Z,98064.53
2022-12-20T22:05:08.973Z,98065.59
2022-12-20T22:07:37.283Z,98067.34
2022-12-20T22:10:06.459Z,98051.75
2022-12-20T22:12:47.059Z,98047.59
2022-12-20T22:15:17.159Z,98036.59
2022-12-20T22:17:45.532Z,98041.44
2022-12-20T22:20:14.577Z,98029.66
2022-12-20T22:22:43.051Z,98019.00
2022-12-20T22:25:11.436Z,98030.09
2022-12-20T22:27:39.701Z,98017.53
2022-12-20T22:30:10.099Z,98016.00
2022-12-20T22:32:39.881Z,98015.31
2022-12-20T22:35:09.112Z,98008.34
2022-12-20T22:37:37.483Z,98016.75
2022-12-20T22:40:07.594Z,98013.72
2022-12-20T22:42:36.318Z,98001.19
2022-12-20T22:45:05.318Z,98000.34
2022-12-20T22:50:20.935Z,97990.63
2022-12-20T22:52:49.371Z,97983.72
2022-12-20T22:55:17.866Z,97984.03
2022-12-20T22:57:46.325Z,97977.38
2022-12-20T23:00:15.972Z,97968.50
2022-12-20T23:02:44.630Z,97966.91
2022-12-20T23:05:13.480Z,97960.97
2022-12-20T23:07:43.297Z,97960.34
2022-12-20T23:10:33.859Z,97954.03
2022-12-20T23:13:19.323Z,97961.63
2022-12-20T23:15:48.591Z,97960.50
2022-12-20T23:18:16.865Z,97951.81
2022-12-20T23:21:07.644Z,97945.88
2022-12-20T23:23:37.460Z,97932.50
2022-12-20T23:26:12.847Z,97925.06
2022-12-20T23:28:41.094Z,97920.06
2022-12-20T23:31:10.804Z,97920.16
2022-12-20T23:33:39.193Z,97913.81
2022-12-20T23:36:08.624Z,97916.09
2022-12-20T23:38:38.711Z,97911.13
2022-12-20T23:41:10.908Z,97914.28
2022-12-20T23:43:39.984Z,97904.56
2022-12-20T23:46:10.968Z,97903.03
2022-12-20T23:48:39.688Z,97907.88
2022-12-20T23:51:10.593Z,97902.16
2022-12-20T23:53:40.694Z,97900.75
2022-12-20T23:56:11.830Z,97903.44
2022-12-20T23:58:40.540Z,97911.13
